Time;durP1;ratioP1;P1;durP2;ratioP2;P2;SDS_P1;SDS_P2;PMS_P1;PMS_P2;Temp;Humidity;BMP_temperature;BMP_pressure;BME280_temperature;BME280_humidity;BME280_pressure;Samples;Min_cycle;Max_cycle;Signal;HPM_P1;HPM_P2
2021/06/10 00:00:49;;;;;;;0.10;0.10;;;;;;;15.88;77.87;102213.25;4980766;28;20039;-80
2021/06/10 00:03:15;;;;;;;0.10;0.10;;;;;;;15.86;77.41;102188.91;4978584;28;20031;-80
2021/06/10 00:05:41;;;;;;;0.10;0.10;;;;;;;15.91;77.28;102195.44;5008018;28;20038;-80
2021/06/10 00:08:07;;;;;;;0.10;0.10;;;;;;;15.91;77.51;102205.97;4985889;28;20393;-80
2021/06/10 00:10:34;;;;;;;0.10;0.10;;;;;;;15.83;77.94;102204.91;5016238;28;20077;-80
2021/06/10 00:13:00;;;;;;;0.00;0.00;;;;;;;15.76;77.49;102190.56;4987308;28;20781;-80
2021/06/10 00:15:31;;;;;;;0.10;0.10;;;;;;;15.74;77.93;102202.97;5019310;28;20029;-80
2021/06/10 00:17:58;;;;;;;0.10;0.10;;;;;;;15.61;78.59;102184.72;4986530;28;20046;-79
2021/06/10 00:20:27;;;;;;;0.10;0.10;;;;;;;15.57;78.39;102180.63;5000075;28;20037;-80
2021/06/10 00:22:55;;;;;;;0.00;0.00;;;;;;;15.56;78.51;102189.44;5006843;28;20484;-79
2021/06/10 00:25:22;;;;;;;0.10;0.10;;;;;;;15.49;78.43;102185.66;5005428;28;20130;-80
2021/06/10 00:27:48;;;;;;;0.10;0.10;;;;;;;15.55;78.57;102190.41;5002228;28;20037;-80
2021/06/10 00:30:16;;;;;;;0.10;0.10;;;;;;;15.49;78.91;102185.66;5005587;28;20027;-80
2021/06/10 00:32:43;;;;;;;0.10;0.10;;;;;;;15.30;78.78;102158.19;5000769;28;20591;-80
2021/06/10 00:35:09;;;;;;;0.10;0.10;;;;;;;15.35;79.08;102166.53;4978648;28;20562;-80
2021/06/10 00:37:35;;;;;;;0.10;0.10;;;;;;;15.24;79.50;102170.91;5017404;28;20046;-80
2021/06/10 00:40:01;;;;;;;0.10;0.10;;;;;;;15.24;79.94;102184.88;4991634;28;20041;-80
2021/06/10 00:42:26;;;;;;;0.10;0.10;;;;;;;15.14;79.69;102159.47;4986242;28;20046;-80
2021/06/10 00:44:54;;;;;;;0.10;0.10;;;;;;;15.18;79.75;102166.97;5007448;28;20049;-80
2021/06/10 00:47:20;;;;;;;0.10;0.10;;;;;;;15.27;79.15;102174.16;5001669;28;20507;-80
2021/06/10 00:49:45;;;;;;;0.10;0.10;;;;;;;15.25;79.27;102177.84;4991746;28;20047;-80
2021/06/10 00:52:12;;;;;;;0.13;0.13;;;;;;;15.18;80.02;102177.47;5015349;28;20035;-80
2021/06/10 00:54:38;;;;;;;0.10;0.10;;;;;;;15.12;79.84;102175.34;5021106;28;20129;-79
2021/06/10 00:57:05;;;;;;;0.10;0.10;;;;;;;15.04;80.06;102170.63;4990759;28;20237;-80
2021/06/10 00:59:31;;;;;;;0.10;0.10;;;;;;;15.08;80.21;102163.38;5020199;28;20062;-79
2021/06/10 01:01:56;;;;;;;0.10;0.10;;;;;;;15.03;80.20;102166.34;5001206;28;20049;-80
2021/06/10 01:04:22;;;;;;;0.10;0.10;;;;;;;14.97;80.16;102156.31;4968342;28;20043;-79
2021/06/10 01:07:23;;;;;;;0.10;0.10;;;;;;;14.92;81.13;102173.38;5000536;28;20045;-79
2021/06/10 01:10:09;;;;;;;0.10;0.10;;;;;;;14.84;81.00;102158.19;4990388;28;20026;-80
2021/06/10 01:12:42;;;;;;;0.10;0.10;;;;;;;14.80;80.48;102148.88;4988496;28;20062;-80
2021/06/10 01:15:07;;;;;;;0.10;0.10;;;;;;;14.92;80.68;102163.72;4989175;28;20120;-80
2021/06/10 01:17:40;;;;;;;0.10;0.10;;;;;;;14.87;81.53;102159.75;4992188;28;20705;-80
2021/06/10 01:20:12;;;;;;;0.10;0.10;;;;;;;14.85;81.81;102169.50;4979545;28;20053;-80
2021/06/10 01:22:58;;;;;;;0.10;0.10;;;;;;;14.70;81.53;102150.50;4992831;28;20054;-79
2021/06/10 01:25:31;;;;;;;0.10;0.10;;;;;;;14.76;82.16;102171.88;5021941;28;20428;-80
2021/06/10 01:28:17;;;;;;;0.10;0.10;;;;;;;14.70;81.84;102169.69;4987953;28;20389;-80
2021/06/10 01:30:55;;;;;;;0.10;0.10;;;;;;;14.41;82.92;102155.25;4983493;28;20496;-80
2021/06/10 01:33:28;;;;;;;0.10;0.10;;;;;;;14.43;83.17;102156.84;5004111;28;20198;-80
2021/06/10 01:36:01;;;;;;;0.10;0.10;;;;;;;14.52;83.02;102169.25;4994532;28;20077;-80
2021/06/10 01:38:27;;;;;;;0.10;0.10;;;;;;;14.54;82.68;102160.44;4982887;28;20035;-79
2021/06/10 01:40:58;;;;;;;0.10;0.10;;;;;;;14.43;82.87;102140.25;4992624;28;20042;-80
2021/06/10 01:43:29;;;;;;;0.10;0.10;;;;;;;14.36;83.59;102150.34;4989549;28;20054;-80
2021/06/10 01:45:56;;;;;;;0.10;0.10;;;;;;;14.54;82.92;102156.03;4999026;28;20464;-80
2021/06/10 01:48:22;;;;;;;0.10;0.10;;;;;;;14.40;82.93;102148.34;5008857;28;20034;-80
2021/06/10 01:50:50;;;;;;;0.10;0.10;;;;;;;14.52;82.68;102155.31;4992662;28;20034;-80
2021/06/10 01:53:17;;;;;;;0.10;0.10;;;;;;;14.47;83.16;102136.47;5014899;28;20502;-80
2021/06/10 01:55:45;;;;;;;0.10;0.10;;;;;;;14.40;82.57;102133.47;5009478;28;20066;-80
2021/06/10 01:58:12;;;;;;;0.10;0.10;;;;;;;14.36;81.92;102133.78;4988577;28;20527;-80
2021/06/10 02:00:39;;;;;;;0.10;0.10;;;;;;;14.38;81.99;102142.38;4997831;28;20129;-79
2021/06/10 02:03:06;;;;;;;0.10;0.10;;;;;;;14.30;82.14;102135.06;5021455;28;20049;-79
2021/06/10 02:05:32;;;;;;;0.10;0.10;;;;;;;14.25;81.65;102131.13;4993285;28;20038;-79
2021/06/10 02:07:58;;;;;;;0.10;0.10;;;;;;;14.16;81.81;102129.97;4990487;28;20089;-79
2021/06/10 02:10:26;;;;;;;0.10;0.10;;;;;;;14.15;81.32;102128.31;4993588;28;20041;-79
2021/06/10 02:12:52;;;;;;;0.10;0.10;;;;;;;14.12;81.32;102128.53;5010501;28;20049;-79
2021/06/10 02:15:19;;;;;;;0.10;0.10;;;;;;;14.10;82.00;102130.44;4965368;28;20057;-79
2021/06/10 02:17:47;;;;;;;0.10;0.10;;;;;;;14.06;81.75;102121.97;4980046;28;20030;-80
2021/06/10 02:20:15;;;;;;;0.10;0.10;;;;;;;14.02;81.85;102117.06;5020281;28;20421;-79
2021/06/10 02:22:41;;;;;;;0.10;0.10;;;;;;;13.94;81.29;102116.75;5018981;28;20041;-80
2021/06/10 02:25:07;;;;;;;0.10;0.10;;;;;;;13.83;81.65;102107.91;5024837;28;20025;-80
2021/06/10 02:27:33;;;;;;;0.10;0.10;;;;;;;13.80;82.42;102102.84;4984844;28;20022;-80
2021/06/10 02:29:59;;;;;;;0.10;0.10;;;;;;;13.91;81.80;102116.03;5020696;28;20408;-80
2021/06/10 02:32:24;;;;;;;0.10;0.10;;;;;;;13.93;81.73;102122.94;4982920;28;20031;-80
2021/06/10 02:34:50;;;;;;;0.10;0.10;;;;;;;13.83;81.69;102115.75;5019555;28;20038;-80
2021/06/10 02:37:18;;;;;;;0.10;0.10;;;;;;;13.67;81.68;102094.22;4997570;28;20046;-80
2021/06/10 02:39:46;;;;;;;0.17;0.17;;;;;;;13.82;81.66;102108.84;4984232;28;20030;-80
2021/06/10 02:42:13;;;;;;;0.10;0.10;;;;;;;13.66;81.28;102087.31;5001523;28;20499;-80
2021/06/10 02:44:42;;;;;;;0.10;0.10;;;;;;;13.73;80.99;102106.88;4982663;28;20045;-80
2021/06/10 02:47:10;;;;;;;0.10;0.10;;;;;;;13.63;81.06;102102.38;5002878;28;20039;-80
2021/06/10 02:49:35;;;;;;;0.10;0.10;;;;;;;13.60;81.17;102092.97;5004828;28;20060;-79
2021/06/10 02:52:05;;;;;;;0.10;0.10;;;;;;;13.49;81.70;102087.66;4995303;28;20027;-79
2021/06/10 02:54:31;;;;;;;0.10;0.10;;;;;;;13.44;81.24;102093.19;4990928;28;20041;-80
2021/06/10 02:56:58;;;;;;;0.10;0.10;;;;;;;13.48;81.90;102088.63;4999551;28;20038;-80
2021/06/10 02:59:25;;;;;;;0.10;0.10;;;;;;;13.51;81.84;102097.09;4987748;28;20501;-80
2021/06/10 03:01:52;;;;;;;0.10;0.10;;;;;;;13.45;82.35;102094.88;4985536;28;20070;-80
2021/06/10 03:04:19;;;;;;;0.10;0.10;;;;;;;13.30;82.41;102096.81;5004491;28;20131;-80
2021/06/10 03:06:45;;;;;;;0.20;0.20;;;;;;;13.20;82.68;102085.28;5028646;28;20516;-80
2021/06/10 03:09:13;;;;;;;0.20;0.20;;;;;;;13.22;81.27;102096.47;5011368;28;20034;-80
2021/06/10 03:11:41;;;;;;;0.10;0.10;;;;;;;13.09;81.22;102074.69;4989458;28;20657;-80
2021/06/10 03:14:11;;;;;;;0.10;0.10;;;;;;;13.17;81.79;102101.16;5004202;28;20073;-80
2021/06/10 03:16:38;;;;;;;0.20;0.20;;;;;;;13.11;81.53;102095.53;4999772;28;20046;-80
2021/06/10 03:19:05;;;;;;;0.20;0.20;;;;;;;13.13;82.03;102096.25;5002791;28;20149;-80
2021/06/10 03:21:31;;;;;;;0.10;0.10;;;;;;;12.96;81.52;102071.25;5004894;28;20431;-80
2021/06/10 03:23:58;;;;;;;0.10;0.10;;;;;;;12.92;81.22;102064.53;5021086;28;20112;-80
2021/06/10 03:26:25;;;;;;;0.13;0.13;;;;;;;12.90;81.39;102064.63;5004448;28;20034;-81
2021/06/10 03:28:51;;;;;;;0.20;0.20;;;;;;;12.96;81.47;102085.16;4985494;28;20404;-80
2021/06/10 03:31:20;;;;;;;0.10;0.10;;;;;;;12.96;81.80;102090.38;5016784;28;20045;-80
2021/06/10 03:33:50;;;;;;;0.20;0.20;;;;;;;12.88;82.13;102090.06;4983128;28;20042;-80
2021/06/10 03:36:17;;;;;;;0.20;0.20;;;;;;;12.95;82.07;102100.94;5016251;28;20038;-80
2021/06/10 03:38:42;;;;;;;0.10;0.10;;;;;;;12.86;82.41;102093.72;5020210;28;20046;-80
2021/06/10 03:41:09;;;;;;;0.10;0.10;;;;;;;12.90;82.05;102100.41;5012108;28;20049;-80
2021/06/10 03:43:36;;;;;;;0.10;0.10;;;;;;;12.92;82.55;102107.19;5025203;28;20554;-80
2021/06/10 03:46:07;;;;;;;0.20;0.20;;;;;;;12.92;82.48;102099.34;4982106;28;20491;-80
2021/06/10 03:48:34;;;;;;;0.10;0.10;;;;;;;12.84;82.61;102085.97;5003718;28;20398;-80
2021/06/10 03:51:00;;;;;;;0.10;0.10;;;;;;;12.83;82.35;102068.63;4960765;28;20046;-80
2021/06/10 03:53:26;;;;;;;0.10;0.10;;;;;;;12.99;82.42;102082.34;4985037;28;20037;-80
2021/06/10 03:55:51;;;;;;;0.10;0.10;;;;;;;12.98;82.93;102066.75;5008723;28;20132;-80
2021/06/10 03:58:21;;;;;;;0.10;0.10;;;;;;;12.98;82.76;102069.38;4990273;28;20125;-80
2021/06/10 04:00:47;;;;;;;0.17;0.17;;;;;;;13.04;81.99;102078.56;5013987;28;20070;-80
2021/06/10 04:03:12;;;;;;;0.20;0.20;;;;;;;12.91;81.96;102062.84;4988543;28;20432;-80
2021/06/10 04:05:38;;;;;;;0.10;0.10;;;;;;;12.99;82.28;102073.66;4998348;28;20050;-80
2021/06/10 04:08:03;;;;;;;0.20;0.20;;;;;;;12.94;82.02;102068.75;4997496;28;20040;-80
2021/06/10 04:10:29;;;;;;;0.10;0.10;;;;;;;12.82;82.29;102068.72;5011175;28;20054;-80
2021/06/10 04:12:55;;;;;;;0.10;0.10;;;;;;;12.98;82.04;102093.72;5001696;28;20396;-80
2021/06/10 04:15:20;;;;;;;0.10;0.10;;;;;;;12.96;82.04;102094.78;4998261;28;20485;-80
2021/06/10 04:17:46;;;;;;;0.15;0.15;;;;;;;12.91;81.86;102073.31;5001977;28;20120;-80
2021/06/10 04:20:12;;;;;;;0.17;0.17;;;;;;;12.99;82.04;102068.41;5023741;28;20035;-80
2021/06/10 04:22:40;;;;;;;0.17;0.17;;;;;;;13.06;82.51;102071.44;4982050;28;20042;-80
2021/06/10 04:25:07;;;;;;;0.10;0.10;;;;;;;13.07;83.49;102067.88;4991011;28;20049;-80
2021/06/10 04:27:33;;;;;;;0.20;0.20;;;;;;;13.09;83.20;102072.06;5001152;28;20038;-80
2021/06/10 04:29:58;;;;;;;0.10;0.10;;;;;;;13.11;82.94;102070.22;4986673;28;20522;-80
2021/06/10 04:32:25;;;;;;;0.10;0.10;;;;;;;13.20;82.51;102082.66;4977375;28;20038;-80
2021/06/10 04:34:50;;;;;;;0.10;0.10;;;;;;;13.17;82.34;102088.09;4988681;28;20045;-80
2021/06/10 04:37:17;;;;;;;0.10;0.10;;;;;;;13.04;83.14;102076.78;4980978;28;20034;-80
2021/06/10 04:39:43;;;;;;;0.10;0.10;;;;;;;13.01;83.37;102070.00;5016916;28;20041;-80
2021/06/10 04:42:09;;;;;;;0.10;0.10;;;;;;;13.17;84.04;102082.84;4983276;28;20046;-80
2021/06/10 04:44:35;;;;;;;0.13;0.13;;;;;;;13.18;83.83;102068.88;4997561;28;20061;-80
2021/06/10 04:47:02;;;;;;;0.20;0.20;;;;;;;13.26;84.03;102069.16;5018814;28;20038;-80
2021/06/10 04:49:27;;;;;;;0.10;0.10;;;;;;;13.29;85.02;102070.75;5006261;28;20081;-80
2021/06/10 04:51:53;;;;;;;0.10;0.10;;;;;;;13.40;84.59;102072.59;4988757;28;20480;-80
2021/06/10 04:54:18;;;;;;;0.17;0.17;;;;;;;13.45;84.49;102073.94;5003020;28;20038;-80
2021/06/10 04:56:44;;;;;;;0.10;0.10;;;;;;;13.58;84.56;102068.69;4989481;28;20066;-80
2021/06/10 04:59:09;;;;;;;0.10;0.10;;;;;;;13.58;84.31;102064.28;5012240;28;20503;-81
2021/06/10 05:01:35;;;;;;;0.10;0.10;;;;;;;13.70;84.47;102087.94;5026590;28;20420;-80
2021/06/10 05:04:00;;;;;;;0.20;0.20;;;;;;;13.68;84.00;102074.13;4994143;28;20043;-80
2021/06/10 05:06:26;;;;;;;0.10;0.10;;;;;;;13.76;84.36;102077.84;4988814;28;20034;-80
2021/06/10 05:08:52;;;;;;;0.10;0.10;;;;;;;13.83;84.16;102078.28;5006850;28;20065;-80
2021/06/10 05:11:17;;;;;;;0.20;0.20;;;;;;;13.86;83.96;102076.25;5008412;28;20034;-80
2021/06/10 05:13:43;;;;;;;0.03;0.03;;;;;;;13.93;84.23;102076.66;4987927;28;20101;-80
2021/06/10 05:16:08;;;;;;;0.20;0.20;;;;;;;14.06;83.56;102085.28;5024805;28;20286;-80
2021/06/10 05:18:34;;;;;;;0.10;0.10;;;;;;;14.20;84.00;102095.63;5025866;28;20034;-80
2021/06/10 05:21:00;;;;;;;0.10;0.10;;;;;;;14.25;83.29;102083.94;4979777;28;20452;-80
2021/06/10 05:23:26;;;;;;;0.10;0.10;;;;;;;14.43;83.63;102104.44;4991517;28;20042;-81
2021/06/10 05:25:51;;;;;;;0.20;0.20;;;;;;;14.46;83.46;102106.81;4988175;28;20030;-80
2021/06/10 05:28:17;;;;;;;0.10;0.10;;;;;;;14.51;83.57;102103.84;5010680;28;20030;-80
2021/06/10 05:30:42;;;;;;;0.10;0.10;;;;;;;14.49;82.98;102085.63;4985833;28;20424;-80
2021/06/10 05:33:08;;;;;;;0.10;0.10;;;;;;;14.67;83.20;102108.78;4977014;28;20483;-80
2021/06/10 05:35:33;;;;;;;0.10;0.10;;;;;;;14.72;83.18;102090.91;4989235;28;20397;-80
2021/06/10 05:37:59;;;;;;;0.10;0.10;;;;;;;14.86;82.72;102106.47;5000687;28;20043;-80
2021/06/10 05:40:24;;;;;;;0.10;0.10;;;;;;;14.85;83.05;102094.28;5002165;28;20069;-80
2021/06/10 05:42:50;;;;;;;0.10;0.10;;;;;;;15.07;83.29;102109.22;4993574;28;20038;-80
2021/06/10 05:45:16;;;;;;;0.10;0.10;;;;;;;15.21;83.91;102108.19;5015479;28;20034;-80
2021/06/10 05:47:41;;;;;;;0.10;0.10;;;;;;;15.36;83.08;102112.25;4973119;28;20035;-80
2021/06/10 05:50:07;;;;;;;0.10;0.10;;;;;;;15.38;82.75;102100.66;5021150;28;20443;-80
2021/06/10 05:52:33;;;;;;;0.10;0.10;;;;;;;15.50;81.82;102105.94;4990022;28;20398;-80
2021/06/10 05:54:59;;;;;;;0.10;0.10;;;;;;;15.70;80.83;102119.19;4993531;28;20097;-80
2021/06/10 05:57:27;;;;;;;0.10;0.10;;;;;;;15.81;80.23;102118.34;5011359;28;20457;-80
2021/06/10 05:59:53;;;;;;;0.17;0.10;;;;;;;15.88;79.63;102111.63;4989809;28;20116;-80
2021/06/10 06:02:18;;;;;;;0.10;0.10;;;;;;;15.91;78.00;102108.75;4988030;28;20041;-80
2021/06/10 06:04:44;;;;;;;0.10;0.10;;;;;;;16.00;78.15;102115.91;5013313;28;20121;-80
2021/06/10 06:07:10;;;;;;;0.10;0.10;;;;;;;16.12;77.23;102114.06;5002316;28;20048;-79
2021/06/10 06:09:36;;;;;;;0.10;0.10;;;;;;;16.22;76.44;102115.00;4984622;28;20460;-80
2021/06/10 06:12:03;;;;;;;0.10;0.10;;;;;;;16.35;75.39;102119.28;4986813;28;20071;-80
2021/06/10 06:14:33;;;;;;;0.10;0.10;;;;;;;16.38;75.52;102121.66;4976809;28;20473;-79
2021/06/10 06:17:04;;;;;;;0.10;0.10;;;;;;;16.48;75.00;102123.38;4988701;28;20455;-79
2021/06/10 06:19:31;;;;;;;0.10;0.10;;;;;;;16.51;74.57;102117.03;5007111;28;20502;-79
2021/06/10 06:21:56;;;;;;;0.10;0.10;;;;;;;16.55;75.17;102114.03;5024146;28;20034;-79
2021/06/10 06:24:22;;;;;;;0.10;0.10;;;;;;;16.55;73.75;102113.22;5004763;28;20543;-79
2021/06/10 06:26:47;;;;;;;0.10;0.10;;;;;;;16.67;75.10;102130.63;4992277;28;20562;-79
2021/06/10 06:29:13;;;;;;;0.20;0.20;;;;;;;16.72;75.08;102136.34;4990010;28;20092;-79
2021/06/10 06:31:38;;;;;;;0.10;0.10;;;;;;;16.85;74.27;102133.50;4975109;28;20408;-79
2021/06/10 06:34:04;;;;;;;0.10;0.10;;;;;;;16.76;75.23;102119.34;4978783;28;20401;-79
2021/06/10 06:36:30;;;;;;;0.10;0.10;;;;;;;16.90;74.49;102107.69;4999115;28;20035;-79
2021/06/10 06:38:56;;;;;;;0.10;0.10;;;;;;;17.00;74.81;102123.50;4973412;28;20097;-79
2021/06/10 06:41:23;;;;;;;0.13;0.13;;;;;;;17.07;73.04;102114.16;4981100;28;20042;-78
2021/06/10 06:43:50;;;;;;;0.10;0.10;;;;;;;17.24;73.25;102133.78;5000320;28;20381;-78
2021/06/10 06:46:16;;;;;;;0.10;0.10;;;;;;;17.25;73.58;102124.91;5002578;28;20045;-79
2021/06/10 06:48:42;;;;;;;0.10;0.10;;;;;;;17.28;72.34;102117.56;4985043;28;20062;-79
2021/06/10 06:51:09;;;;;;;0.10;0.10;;;;;;;17.42;72.93;102125.13;5005314;28;20057;-78
2021/06/10 06:53:35;;;;;;;0.10;0.10;;;;;;;17.64;71.81;102139.06;4987709;28;20544;-78
2021/06/10 06:56:02;;;;;;;0.10;0.10;;;;;;;17.60;70.60;102127.97;4972515;28;20035;-79
2021/06/10 06:58:28;;;;;;;0.10;0.10;;;;;;;17.81;70.03;102144.56;4998466;28;20057;-79
2021/06/10 07:00:54;;;;;;;0.10;0.10;;;;;;;17.85;69.45;102139.00;5009673;28;20516;-79
2021/06/10 07:03:21;;;;;;;0.10;0.10;;;;;;;17.91;69.07;102141.09;4983969;28;20402;-79
2021/06/10 07:05:47;;;;;;;0.10;0.10;;;;;;;18.02;68.41;102141.00;4995017;28;20162;-79
2021/06/10 07:08:13;;;;;;;0.00;0.00;;;;;;;18.14;66.81;102139.91;4971856;28;20125;-79
2021/06/10 07:10:39;;;;;;;0.10;0.10;;;;;;;18.16;66.63;102135.34;4992993;28;20038;-79
2021/06/10 07:13:04;;;;;;;0.10;0.10;;;;;;;18.18;66.27;102138.66;4989415;28;20057;-78
2021/06/10 07:15:31;;;;;;;0.10;0.10;;;;;;;18.27;66.84;102147.53;4981519;28;20499;-79
2021/06/10 07:17:56;;;;;;;0.10;0.10;;;;;;;18.21;66.20;102142.81;4986777;28;20484;-79
2021/06/10 07:20:22;;;;;;;0.10;0.10;;;;;;;18.20;64.57;102134.09;5020223;28;20096;-79
2021/06/10 07:22:48;;;;;;;0.10;0.10;;;;;;;18.31;65.84;102141.88;4984865;28;20076;-79
2021/06/10 07:25:13;;;;;;;0.10;0.10;;;;;;;18.40;64.93;102148.94;5017104;28;20033;-79
2021/06/10 07:27:40;;;;;;;0.10;0.10;;;;;;;18.37;65.58;102137.84;4985944;28;20042;-79
2021/06/10 07:30:07;;;;;;;0.10;0.10;;;;;;;18.51;64.68;102150.63;5018109;28;20042;-79
2021/06/10 07:32:34;;;;;;;0.25;0.10;;;;;;;18.61;64.94;102162.00;5018647;28;20061;-80
2021/06/10 07:34:59;;;;;;;0.10;0.10;;;;;;;18.60;63.80;102148.94;5009097;28;20066;-79
2021/06/10 07:37:26;;;;;;;0.10;0.10;;;;;;;18.74;63.69;102156.47;4986860;28;20591;-79
2021/06/10 07:39:51;;;;;;;0.10;0.10;;;;;;;18.82;62.80;102150.47;4982904;28;20526;-79
2021/06/10 07:42:18;;;;;;;0.10;0.10;;;;;;;18.89;63.27;102143.69;5002763;28;20034;-79
2021/06/10 07:44:43;;;;;;;0.10;0.10;;;;;;;19.00;63.74;102149.59;4984843;28;20619;-78
2021/06/10 07:47:09;;;;;;;0.08;0.08;;;;;;;19.07;62.21;102149.06;4985828;28;20041;-79
2021/06/10 07:49:35;;;;;;;0.10;0.10;;;;;;;19.05;61.91;102141.28;4999748;28;20078;-79
2021/06/10 07:52:01;;;;;;;0.10;0.10;;;;;;;19.23;61.38;102141.38;4983351;28;20484;-79
2021/06/10 07:54:27;;;;;;;0.10;0.10;;;;;;;19.33;61.67;102147.44;4974822;28;20034;-79
2021/06/10 07:56:53;;;;;;;0.08;0.08;;;;;;;19.45;60.33;102170.06;4971586;28;20038;-81
2021/06/10 07:59:25;;;;;;;0.10;0.10;;;;;;;19.44;60.62;102160.47;5014257;28;20054;-81
2021/06/10 08:01:51;;;;;;;0.10;0.10;;;;;;;19.57;58.79;102162.84;4982464;28;20515;-81
2021/06/10 08:04:17;;;;;;;0.10;0.10;;;;;;;19.60;59.84;102159.91;5001447;28;20042;-81
2021/06/10 08:06:42;;;;;;;0.10;0.10;;;;;;;19.65;59.30;102151.53;4984882;28;20404;-81
2021/06/10 08:09:08;;;;;;;0.10;0.10;;;;;;;19.78;56.95;102152.84;4975577;28;20042;-82
2021/06/10 08:11:35;;;;;;;0.10;0.10;;;;;;;20.00;57.23;102158.72;4973662;28;20030;-81
2021/06/10 08:14:00;;;;;;;0.10;0.10;;;;;;;20.06;57.17;102173.97;4974935;28;20122;-81
2021/06/10 08:16:26;;;;;;;0.10;0.10;;;;;;;20.06;58.62;102160.75;5000116;28;20389;-81
2021/06/10 08:18:52;;;;;;;0.10;0.10;;;;;;;20.01;57.80;102149.78;4987345;28;20034;-81
2021/06/10 08:21:17;;;;;;;0.10;0.10;;;;;;;20.08;58.30;102166.72;5015539;28;20050;-81
2021/06/10 08:23:43;;;;;;;0.08;0.08;;;;;;;20.05;58.70;102149.34;4987842;28;20054;-81
2021/06/10 08:26:09;;;;;;;0.10;0.10;;;;;;;20.20;57.85;102147.84;5014290;28;20043;-81
2021/06/10 08:28:34;;;;;;;0.05;0.05;;;;;;;20.32;59.04;102153.75;4984627;28;20038;-81
2021/06/10 08:31:00;;;;;;;0.10;0.10;;;;;;;20.41;55.66;102160.81;5001920;28;20577;-82
2021/06/10 08:33:27;;;;;;;0.10;0.10;;;;;;;20.40;54.89;102160.94;5001104;28;20038;-81
2021/06/10 08:35:53;;;;;;;0.10;0.10;;;;;;;20.47;55.04;102149.63;5003752;28;20038;-80
2021/06/10 08:38:19;;;;;;;0.10;0.10;;;;;;;20.53;55.58;102153.47;4990093;28;20045;-81
2021/06/10 08:40:45;;;;;;;0.10;0.10;;;;;;;20.49;55.44;102146.84;4981445;28;20043;-80
2021/06/10 08:43:11;;;;;;;0.00;0.00;;;;;;;20.57;53.07;102154.00;4988379;28;20495;-80
2021/06/10 08:45:42;;;;;;;0.10;0.10;;;;;;;20.60;54.12;102146.59;5000623;28;20026;-77
2021/06/10 08:48:08;;;;;;;0.08;0.08;;;;;;;20.66;54.13;102138.03;5000740;28;20034;-78
2021/06/10 08:50:33;;;;;;;0.10;0.10;;;;;;;20.77;55.12;102139.59;5015437;28;20046;-78
2021/06/10 08:53:00;;;;;;;0.10;0.10;;;;;;;20.82;54.98;102139.97;5004964;28;20034;-78
2021/06/10 08:55:27;;;;;;;0.10;0.10;;;;;;;20.91;51.47;102151.47;4996268;28;20467;-78
2021/06/10 08:57:54;;;;;;;0.10;0.10;;;;;;;20.90;48.93;102139.19;5007438;28;20035;-78
2021/06/10 09:00:21;;;;;;;0.00;0.00;;;;;;;21.03;51.01;102144.94;5009742;28;20050;-78
2021/06/10 09:02:55;;;;;;;0.10;0.10;;;;;;;21.06;52.04;102155.19;5012168;28;20038;-78
2021/06/10 09:05:21;;;;;;;0.10;0.10;;;;;;;21.08;50.27;102156.72;5008223;28;20034;-78
2021/06/10 09:07:53;;;;;;;0.00;0.00;;;;;;;20.93;52.75;102147.66;5023264;28;20404;-78
2021/06/10 09:10:22;;;;;;;0.00;0.00;;;;;;;21.11;54.11;102163.50;5004269;28;20051;-78
2021/06/10 09:12:57;;;;;;;0.10;0.10;;;;;;;21.07;53.15;102159.50;4986399;28;20037;-79
2021/06/10 09:15:25;;;;;;;0.00;0.00;;;;;;;21.10;53.57;102167.97;4988459;28;20651;-79
2021/06/10 09:17:52;;;;;;;0.10;0.10;;;;;;;21.36;49.84;102164.50;5002522;28;20234;-79
2021/06/10 09:20:20;;;;;;;0.10;0.10;;;;;;;21.48;52.95;102160.59;5005859;28;20049;-79
2021/06/10 09:22:47;;;;;;;0.10;0.10;;;;;;;21.53;51.84;102150.34;5019395;28;20045;-79
2021/06/10 09:25:17;;;;;;;0.10;0.10;;;;;;;21.69;50.83;102157.53;4990498;28;20121;-79
2021/06/10 09:28:09;;;;;;;0.00;0.00;;;;;;;21.82;50.86;102157.09;4998319;28;20030;-80
2021/06/10 09:30:52;;;;;;;0.10;0.10;;;;;;;21.87;50.56;102157.44;4983607;28;20057;-80
2021/06/10 09:33:20;;;;;;;0.00;0.00;;;;;;;21.95;47.81;102149.50;4984943;28;20042;-80
2021/06/10 09:35:47;;;;;;;0.10;0.10;;;;;;;22.15;50.90;102163.34;4986232;28;20042;-79
2021/06/10 09:38:16;;;;;;;0.10;0.10;;;;;;;22.16;48.89;102154.41;4975973;28;20064;-78
2021/06/10 09:40:43;;;;;;;0.10;0.10;;;;;;;22.24;50.16;102154.41;5017199;28;20084;-79
2021/06/10 09:43:10;;;;;;;0.10;0.10;;;;;;;22.09;47.80;102135.66;5007971;28;20050;-78
2021/06/10 09:45:37;;;;;;;0.00;0.00;;;;;;;22.45;50.66;102164.56;5004114;28;20081;-79
2021/06/10 09:48:05;;;;;;;0.10;0.10;;;;;;;22.60;48.71;102163.72;5007232;28;20043;-79
2021/06/10 09:50:42;;;;;;;0.10;0.10;;;;;;;22.66;50.30;102162.25;4991406;28;20042;-79
2021/06/10 09:53:13;;;;;;;0.10;0.10;;;;;;;22.85;50.48;102169.06;4979397;28;20089;-80
2021/06/10 09:55:49;;;;;;;0.00;0.00;;;;;;;22.89;49.01;102167.72;5007350;28;20805;-80
2021/06/10 09:58:15;;;;;;;0.10;0.10;;;;;;;22.90;48.14;102159.59;5015932;28;20138;-80
2021/06/10 10:00:49;;;;;;;0.10;0.10;;;;;;;22.86;49.41;102168.91;5020389;28;20140;-80
2021/06/10 10:03:31;;;;;;;0.10;0.10;;;;;;;22.92;50.63;102160.25;5020755;28;20083;-80
2021/06/10 10:06:05;;;;;;;0.10;0.10;;;;;;;23.00;51.05;102154.13;5017855;28;20042;-80
2021/06/10 10:08:32;;;;;;;0.00;0.00;;;;;;;23.04;48.70;102160.75;5029189;28;20417;-79
2021/06/10 10:10:59;;;;;;;0.05;0.05;;;;;;;23.17;49.72;102158.41;5006377;28;20034;-80
2021/06/10 10:13:26;;;;;;;0.10;0.10;;;;;;;23.24;48.56;102149.72;5025262;28;20038;-79
2021/06/10 10:15:52;;;;;;;0.10;0.10;;;;;;;23.34;49.66;102153.00;5019386;28;20101;-79
2021/06/10 10:18:18;;;;;;;0.08;0.08;;;;;;;23.40;49.72;102150.50;5003456;28;20030;-79
2021/06/10 10:20:45;;;;;;;0.10;0.10;;;;;;;23.40;48.05;102145.19;4988474;28;20038;-79
2021/06/10 10:23:11;;;;;;;0.00;0.00;;;;;;;23.44;50.55;102146.50;5003654;28;20034;-79
2021/06/10 10:25:37;;;;;;;0.10;0.10;;;;;;;23.48;50.45;102157.63;4976931;28;20046;-80
2021/06/10 10:28:11;;;;;;;0.00;0.00;;;;;;;23.60;51.29;102142.16;5020731;28;20476;-80
2021/06/10 10:30:39;;;;;;;0.03;0.03;;;;;;;23.63;48.37;102145.28;4988274;28;20459;-80
2021/06/10 10:33:23;;;;;;;0.00;0.00;;;;;;;23.61;49.57;102143.81;4983883;28;20484;-80
2021/06/10 10:36:03;;;;;;;0.05;0.05;;;;;;;23.59;49.63;102143.97;4996914;28;21046;-80
2021/06/10 10:38:40;;;;;;;0.10;0.10;;;;;;;23.85;49.60;102154.31;4976211;28;20109;-80
2021/06/10 10:41:21;;;;;;;0.00;0.00;;;;;;;24.02;48.33;102149.72;4989998;28;20122;-80
2021/06/10 10:43:47;;;;;;;0.00;0.00;;;;;;;24.15;50.48;102143.84;4984196;28;20030;-81
2021/06/10 10:46:21;;;;;;;0.00;0.00;;;;;;;24.21;47.36;102140.47;4984450;28;20034;-80
2021/06/10 10:48:50;;;;;;;;;;;;;;;24.22;46.49;102148.25;4975572;28;20485;-80
2021/06/10 10:51:29;;;;;;;0.00;0.00;;;;;;;24.53;45.27;102153.56;5008809;28;20683;-79
2021/06/10 10:53:58;;;;;;;0.00;0.00;;;;;;;24.58;45.98;102139.69;4983063;28;20556;-79
2021/06/10 10:56:38;;;;;;;0.00;0.00;;;;;;;24.63;44.42;102145.34;4989001;28;20298;-79
2021/06/10 10:59:14;;;;;;;0.10;0.10;;;;;;;24.71;43.67;102148.75;4979261;28;20492;-80
2021/06/10 11:01:42;;;;;;;0.00;0.00;;;;;;;24.65;44.27;102138.00;5018226;28;20149;-80
2021/06/10 11:04:28;;;;;;;0.10;0.10;;;;;;;24.81;47.94;102134.34;4994654;28;20088;-79
2021/06/10 11:06:53;;;;;;;0.00;0.00;;;;;;;25.13;44.69;102134.03;4987545;28;20051;-79
2021/06/10 11:09:21;;;;;;;0.00;0.00;;;;;;;25.18;43.93;102136.16;4973503;28;20034;-80
2021/06/10 11:12:01;;;;;;;0.10;0.10;;;;;;;25.35;43.69;102126.97;4979201;28;20038;-79
2021/06/10 11:14:44;;;;;;;0.00;0.00;;;;;;;25.13;41.95;102141.19;4955688;28;20094;-80
2021/06/10 11:17:30;;;;;;;0.10;0.10;;;;;;;25.23;42.18;102134.59;4996693;28;20499;-80
2021/06/10 11:19:59;;;;;;;0.10;0.10;;;;;;;25.59;40.59;102136.47;4963775;28;20593;-80
2021/06/10 11:22:29;;;;;;;0.10;0.10;;;;;;;25.50;38.99;102117.09;4977698;28;20034;-79
2021/06/10 11:24:54;;;;;;;0.10;0.10;;;;;;;25.74;39.93;102128.50;4986656;28;20631;-80
2021/06/10 11:27:37;;;;;;;0.00;0.00;;;;;;;25.89;38.02;102127.44;4989878;28;20026;-80